Time;durP1;ratioP1;P1;durP2;ratioP2;P2;SDS_P1;SDS_P2;PMS_P1;PMS_P2;Temp;Humidity;BMP_temperature;BMP_pressure;BME280_temperature;BME280_humidity;BME280_pressure;Samples;Min_cycle;Max_cycle;Signal;HPM_P1;HPM_P2
2021/06/08 00:01:58;;;;;;;11.30;5.60;;;20.50;99.90;;;;;;5011644;28;20022;-84
2021/06/08 00:04:24;;;;;;;9.48;6.95;;;20.40;99.90;;;;;;5000889;28;20363;-84
2021/06/08 00:06:50;;;;;;;10.75;7.25;;;20.50;99.90;;;;;;5014828;28;20026;-81
2021/06/08 00:09:17;;;;;;;9.68;5.95;;;20.50;99.90;;;;;;4995055;28;20096;-84
2021/06/08 00:11:43;;;;;;;8.65;6.22;;;20.50;99.90;;;;;;4998209;28;20019;-83
2021/06/08 00:14:09;;;;;;;5.90;5.40;;;20.50;99.90;;;;;;5004275;28;20063;-84
2021/06/08 00:16:35;;;;;;;8.55;5.82;;;20.60;99.90;;;;;;4995461;28;20017;-80
2021/06/08 00:19:01;;;;;;;12.13;5.88;;;20.50;99.90;;;;;;4992319;28;20030;-83
2021/06/08 00:21:27;;;;;;;7.90;6.25;;;20.50;99.90;;;;;;4992599;28;20034;-83
2021/06/08 00:24:09;;;;;;;8.40;6.03;;;20.50;99.90;;;;;;4992162;28;20021;-83
2021/06/08 00:26:36;;;;;;;6.75;6.15;;;20.50;99.90;;;;;;4992473;28;20122;-83
2021/06/08 00:29:01;;;;;;;9.45;6.55;;;20.50;99.90;;;;;;4994520;28;20113;-83
2021/06/08 00:31:27;;;;;;;6.90;5.60;;;20.50;99.90;;;;;;4991971;28;20118;-84
2021/06/08 00:33:53;;;;;;;12.23;6.13;;;20.50;99.90;;;;;;4976227;28;20026;-82
2021/06/08 00:36:20;;;;;;;7.03;6.32;;;20.50;99.90;;;;;;4993975;28;20026;-82
2021/06/08 00:38:46;;;;;;;8.85;5.75;;;20.50;99.90;;;;;;4999100;28;20013;-83
2021/06/08 00:41:12;;;;;;;7.45;5.40;;;20.50;99.90;;;;;;5005773;28;20486;-83
2021/06/08 00:43:38;;;;;;;6.28;5.63;;;20.60;99.90;;;;;;4997604;28;20088;-81
2021/06/08 00:46:04;;;;;;;12.30;6.18;;;20.60;99.90;;;;;;5015296;28;20018;-83
2021/06/08 00:48:30;;;;;;;9.38;6.03;;;20.60;99.90;;;;;;5014801;28;20406;-83
2021/06/08 00:50:56;;;;;;;12.52;6.22;;;20.60;99.90;;;;;;5015270;28;20025;-83
2021/06/08 00:53:23;;;;;;;10.55;6.53;;;20.60;99.90;;;;;;5003800;28;20687;-83
2021/06/08 00:55:50;;;;;;;8.02;5.97;;;20.60;99.90;;;;;;5004220;28;20025;-82
2021/06/08 00:58:15;;;;;;;10.60;6.05;;;20.60;99.90;;;;;;4999554;28;20018;-83
2021/06/08 01:00:41;;;;;;;8.13;5.93;;;20.60;99.90;;;;;;4984311;28;21184;-81
2021/06/08 01:03:07;;;;;;;13.73;6.90;;;20.50;99.90;;;;;;5001262;28;20026;-83
2021/06/08 01:05:33;;;;;;;8.75;5.32;;;20.50;99.90;;;;;;4982736;28;20026;-82
2021/06/08 01:07:59;;;;;;;7.03;5.82;;;20.50;99.90;;;;;;5003050;28;20037;-83
2021/06/08 01:10:25;;;;;;;8.98;5.78;;;20.60;99.90;;;;;;4994970;28;20025;-83
2021/06/08 01:12:50;;;;;;;9.80;6.20;;;20.60;99.90;;;;;;5003532;28;20022;-82
2021/06/08 01:15:16;;;;;;;8.65;5.68;;;20.60;99.90;;;;;;4981745;28;20456;-83
2021/06/08 01:17:42;;;;;;;7.97;5.82;;;20.60;99.90;;;;;;5002048;28;20128;-84
2021/06/08 01:20:09;;;;;;;8.05;5.32;;;20.60;99.90;;;;;;5000976;28;20387;-84
2021/06/08 01:22:36;;;;;;;7.72;5.78;;;20.50;99.90;;;;;;5000393;28;20027;-84
2021/06/08 01:25:04;;;;;;;8.68;5.90;;;20.50;99.90;;;;;;5002905;28;20021;-84
2021/06/08 01:27:31;;;;;;;7.13;5.63;;;20.50;99.90;;;;;;4983058;28;20117;-83
2021/06/08 01:29:59;;;;;;;6.88;5.50;;;20.40;99.90;;;;;;5005726;28;20026;-84
2021/06/08 01:32:28;;;;;;;9.48;5.25;;;20.40;99.90;;;;;;5000696;28;20113;-85
2021/06/08 01:34:55;;;;;;;7.78;5.03;;;20.40;99.90;;;;;;4987058;28;20026;-83
2021/06/08 01:37:22;;;;;;;11.30;5.45;;;20.40;99.90;;;;;;5000799;28;20538;-84
2021/06/08 01:39:48;;;;;;;8.20;6.45;;;20.50;99.90;;;;;;5002105;28;20022;-84
2021/06/08 01:42:16;;;;;;;5.65;5.15;;;20.50;99.90;;;;;;5015466;28;20030;-86
2021/06/08 01:44:43;;;;;;;8.63;5.50;;;20.50;99.90;;;;;;4991145;28;20101;-81
2021/06/08 01:47:10;;;;;;;10.75;5.95;;;20.50;99.90;;;;;;4992427;28;20022;-84
2021/06/08 01:49:37;;;;;;;8.57;6.20;;;20.50;99.90;;;;;;4990403;28;20065;-84
2021/06/08 01:52:02;;;;;;;9.60;5.57;;;20.50;99.90;;;;;;4981988;28;20341;-82
2021/06/08 01:54:45;;;;;;;10.35;5.75;;;20.50;99.90;;;;;;4990936;28;20026;-84
2021/06/08 01:57:18;;;;;;;8.38;5.53;;;20.60;99.90;;;;;;4981824;28;20019;-85
2021/06/08 02:00:07;;;;;;;11.10;5.93;;;20.60;99.90;;;;;;4987711;28;20042;-83
2021/06/08 02:02:58;;;;;;;7.75;5.95;;;20.60;99.90;;;;;;4996185;28;20026;-84
2021/06/08 02:05:33;;;;;;;9.90;5.90;;;20.70;99.90;;;;;;4994901;28;20036;-85
2021/06/08 02:08:12;;;;;;;13.02;5.65;;;20.70;99.90;;;;;;5001586;28;20017;-85
2021/06/08 02:10:48;;;;;;;11.68;5.60;;;20.70;99.90;;;;;;5001125;28;20033;-83
2021/06/08 02:14:01;;;;;;;8.13;6.10;;;20.60;99.90;;;;;;5000747;28;20360;-84
2021/06/08 02:16:39;;;;;;;11.40;5.72;;;20.60;99.90;;;;;;4984614;28;20049;-84
2021/06/08 02:19:05;;;;;;;6.45;5.47;;;20.60;99.90;;;;;;5003092;28;20042;-81
2021/06/08 02:21:36;;;;;;;12.13;6.70;;;20.60;99.90;;;;;;5002722;28;20495;-84
2021/06/08 02:24:03;;;;;;;7.07;6.25;;;20.50;99.90;;;;;;4985049;28;20026;-84
2021/06/08 02:26:31;;;;;;;8.85;5.70;;;20.50;99.90;;;;;;5000047;28;20018;-84
2021/06/08 02:28:58;;;;;;;16.63;6.75;;;20.40;99.90;;;;;;5002325;28;20090;-84
2021/06/08 02:31:26;;;;;;;9.05;6.00;;;20.40;99.90;;;;;;5001735;28;20030;-85
2021/06/08 02:33:53;;;;;;;9.52;5.70;;;20.40;99.90;;;;;;5002083;28;20019;-83
2021/06/08 02:36:20;;;;;;;11.98;6.70;;;20.30;99.90;;;;;;5002421;28;20118;-84
2021/06/08 02:38:48;;;;;;;10.38;6.70;;;20.30;99.90;;;;;;4999851;28;20140;-82
2021/06/08 02:41:14;;;;;;;9.52;6.53;;;20.30;99.90;;;;;;4996669;28;20022;-84
2021/06/08 02:43:41;;;;;;;6.55;5.93;;;20.30;99.90;;;;;;4994683;28;20022;-85
2021/06/08 02:46:08;;;;;;;16.58;6.60;;;20.30;99.90;;;;;;4994504;28;20041;-77
2021/06/08 02:48:36;;;;;;;9.15;6.28;;;20.20;99.90;;;;;;4999438;28;20045;-83
2021/06/08 02:51:03;;;;;;;14.68;6.78;;;20.30;99.90;;;;;;5014116;28;20045;-83
2021/06/08 02:53:29;;;;;;;10.18;6.80;;;20.30;99.90;;;;;;5012538;28;20105;-83
2021/06/08 02:55:55;;;;;;;12.88;6.47;;;20.20;99.90;;;;;;4984989;28;20038;-84
2021/06/08 02:58:22;;;;;;;13.68;6.07;;;20.30;99.90;;;;;;4993877;28;20026;-83
2021/06/08 03:00:49;;;;;;;9.15;6.28;;;20.30;99.90;;;;;;5010109;28;20062;-83
2021/06/08 03:03:23;;;;;;;8.75;6.05;;;20.30;99.90;;;;;;5013341;28;20096;-85
2021/06/08 03:05:55;;;;;;;10.95;5.95;;;20.30;99.90;;;;;;4984201;28;20062;-84
2021/06/08 03:08:44;;;;;;;6.50;5.88;;;20.30;99.90;;;;;;5004276;28;20030;-84
2021/06/08 03:11:15;;;;;;;9.95;6.25;;;20.40;99.90;;;;;;4973965;28;20053;-84
2021/06/08 03:13:41;;;;;;;;;;;20.40;99.90;;;;;;5013793;28;20032;-84
2021/06/08 03:16:09;;;;;;;12.23;6.40;;;20.50;99.90;;;;;;5013154;28;19905;-81
2021/06/08 03:18:37;;;;;;;7.28;5.40;;;20.50;99.90;;;;;;5000071;28;20022;-83
2021/06/08 03:21:06;;;;;;;8.88;5.85;;;20.50;99.90;;;;;;4991660;28;20018;-83
2021/06/08 03:23:39;;;;;;;7.60;5.75;;;20.60;99.90;;;;;;5003191;28;20415;-83
2021/06/08 03:26:07;;;;;;;7.15;5.72;;;20.50;99.90;;;;;;4993340;28;20373;-82
2021/06/08 03:28:35;;;;;;;10.93;6.65;;;20.50;99.90;;;;;;5000084;28;20121;-80
2021/06/08 03:31:03;;;;;;;9.15;6.25;;;20.50;99.90;;;;;;5013168;28;20382;-83
2021/06/08 03:33:30;;;;;;;11.05;6.35;;;20.50;99.90;;;;;;5012577;28;20021;-83
2021/06/08 03:35:57;;;;;;;10.40;5.80;;;20.50;99.90;;;;;;4995425;28;20383;-83
2021/06/08 03:38:24;;;;;;;7.63;5.95;;;20.50;99.90;;;;;;5012622;28;20018;-83
2021/06/08 03:40:52;;;;;;;14.07;6.80;;;20.50;99.90;;;;;;5012505;28;20379;-82
2021/06/08 03:43:19;;;;;;;6.55;5.95;;;20.50;99.90;;;;;;5012175;28;20052;-82
2021/06/08 03:45:49;;;;;;;10.00;6.50;;;20.50;99.90;;;;;;4978485;28;20037;-82
2021/06/08 03:48:16;;;;;;;8.77;6.15;;;20.60;99.90;;;;;;5011921;28;20049;-83
2021/06/08 03:50:46;;;;;;;10.57;5.90;;;20.50;99.90;;;;;;4984910;28;20025;-82
2021/06/08 03:53:12;;;;;;;6.55;5.93;;;20.50;99.90;;;;;;5012514;28;20034;-83
2021/06/08 03:55:38;;;;;;;6.70;5.95;;;20.60;99.90;;;;;;5011962;28;20438;-82
2021/06/08 03:58:11;;;;;;;11.20;5.50;;;20.60;99.90;;;;;;5012700;28;20026;-83
2021/06/08 04:00:38;;;;;;;8.60;5.78;;;20.70;99.90;;;;;;5012370;28;20018;-82
2021/06/08 04:03:06;;;;;;;9.40;5.97;;;20.70;99.90;;;;;;5012149;28;20105;-83
2021/06/08 04:05:32;;;;;;;16.02;5.70;;;20.80;99.90;;;;;;5011822;28;20022;-83
2021/06/08 04:07:58;;;;;;;7.53;5.18;;;20.90;99.90;;;;;;5011995;28;20478;-84
2021/06/08 04:10:25;;;;;;;6.32;5.68;;;20.90;99.90;;;;;;5012290;28;20032;-82
2021/06/08 04:12:51;;;;;;;7.20;6.45;;;21.00;99.90;;;;;;5013841;28;20021;-84
2021/06/08 04:15:20;;;;;;;6.13;5.40;;;21.10;99.90;;;;;;5016290;28;20033;-84
2021/06/08 04:17:46;;;;;;;8.13;6.03;;;21.30;99.90;;;;;;5015976;28;20030;-83
2021/06/08 04:20:12;;;;;;;6.38;5.43;;;21.50;99.90;;;;;;5015582;28;20018;-83
2021/06/08 04:22:39;;;;;;;11.55;6.10;;;21.60;99.90;;;;;;5015230;28;20041;-82
2021/06/08 04:25:08;;;;;;;7.70;5.18;;;21.80;99.90;;;;;;5016051;28;20060;-84
2021/06/08 04:27:53;;;;;;;6.03;5.35;;;22.10;99.90;;;;;;5015778;28;20038;-84
2021/06/08 04:30:20;;;;;;;12.40;5.22;;;22.50;99.90;;;;;;4998202;28;20025;-85
2021/06/08 04:32:47;;;;;;;8.82;5.22;;;23.20;99.90;;;;;;5015849;28;20136;-83
2021/06/08 04:35:15;;;;;;;10.02;5.75;;;24.60;99.90;;;;;;5015426;28;20018;-83
2021/06/08 04:37:42;;;;;;;7.03;4.70;;;25.80;99.90;;;;;;5015062;28;20017;-83
2021/06/08 04:40:10;;;;;;;6.03;5.00;;;25.30;99.90;;;;;;5014364;28;20025;-83
2021/06/08 04:42:41;;;;;;;13.32;5.55;;;24.10;99.90;;;;;;5005578;28;20110;-83
2021/06/08 04:45:10;;;;;;;7.35;5.40;;;23.20;99.90;;;;;;4987919;28;20026;-84
2021/06/08 04:47:36;;;;;;;7.07;4.90;;;23.20;99.90;;;;;;5014967;28;20037;-84
2021/06/08 04:50:02;;;;;;;5.25;4.60;;;24.20;99.90;;;;;;5014956;28;20062;-85
2021/06/08 04:52:27;;;;;;;12.05;5.00;;;24.50;99.90;;;;;;5002940;28;20026;-84
2021/06/08 04:54:53;;;;;;;5.63;4.97;;;25.40;99.90;;;;;;5005697;28;20018;-83
2021/06/08 04:57:19;;;;;;;7.25;5.15;;;26.50;99.90;;;;;;5001161;28;20025;-80
2021/06/08 05:00:06;;;;;;;10.63;4.40;;;27.40;99.90;;;;;;4998300;28;20026;-83
2021/06/08 05:02:45;;;;;;;9.93;4.80;;;27.20;99.90;;;;;;4995872;28;20081;-84
2021/06/08 05:05:20;;;;;;;11.30;5.30;;;27.00;99.90;;;;;;4995157;28;20019;-83
2021/06/08 05:07:50;;;;;;;7.55;4.63;;;27.10;99.90;;;;;;4997155;28;20116;-84
2021/06/08 05:10:18;;;;;;;4.95;4.18;;;27.20;99.90;;;;;;5007485;28;20033;-83
2021/06/08 05:12:45;;;;;;;6.60;3.97;;;27.00;99.90;;;;;;5000870;28;20021;-84
2021/06/08 05:15:15;;;;;;;8.20;4.30;;;27.80;99.90;;;;;;4995154;28;20539;-82
2021/06/08 05:17:43;;;;;;;5.22;4.13;;;28.80;99.90;;;;;;5006672;28;20014;-81
2021/06/08 05:20:10;;;;;;;6.07;3.72;;;29.20;99.90;;;;;;5000619;28;20018;-84
2021/06/08 05:22:37;;;;;;;5.10;4.05;;;31.20;99.90;;;;;;4997780;28;20109;-83
2021/06/08 05:25:03;;;;;;;8.73;3.90;;;32.00;99.90;;;;;;5013492;28;20674;-82
2021/06/08 05:27:29;;;;;;;7.68;3.40;;;32.30;99.90;;;;;;5011700;28;20048;-84
2021/06/08 05:29:56;;;;;;;4.63;3.40;;;33.50;99.90;;;;;;5013358;28;20045;-84
2021/06/08 05:32:23;;;;;;;9.10;3.25;;;34.40;99.90;;;;;;5014235;28;20025;-84
2021/06/08 05:34:49;;;;;;;6.03;3.10;;;35.80;97.80;;;;;;5013338;28;20383;-84
2021/06/08 05:37:16;;;;;;;3.72;3.33;;;36.00;96.20;;;;;;5013785;28;20026;-85
2021/06/08 05:39:43;;;;;;;8.32;3.85;;;36.10;94.90;;;;;;4995948;28;20028;-85
2021/06/08 05:42:15;;;;;;;6.03;2.78;;;36.90;93.90;;;;;;4987259;28;20014;-83
2021/06/08 05:44:41;;;;;;;5.40;2.63;;;37.50;92.20;;;;;;5011161;28;20076;-85
2021/06/08 05:47:08;;;;;;;8.20;3.05;;;37.90;91.10;;;;;;5014239;28;20017;-84
2021/06/08 05:49:37;;;;;;;18.40;3.50;;;38.30;90.10;;;;;;5014563;28;20564;-85
2021/06/08 05:52:07;;;;;;;3.53;3.15;;;38.30;89.10;;;;;;5014043;28;20054;-86
2021/06/08 05:54:34;;;;;;;8.60;3.03;;;39.20;86.70;;;;;;5013398;28;20076;-79
2021/06/08 05:57:00;;;;;;;7.65;2.85;;;39.20;85.00;;;;;;5013364;28;20037;-86
2021/06/08 05:59:27;;;;;;;10.95;3.20;;;39.20;85.10;;;;;;5013371;28;20311;-81
2021/06/08 06:01:53;;;;;;;4.38;2.50;;;39.30;84.10;;;;;;5013505;28;20105;-82
2021/06/08 06:04:24;;;;;;;2.90;2.60;;;39.90;83.80;;;;;;5013543;28;20088;-85
2021/06/08 06:06:51;;;;;;;2.88;2.28;;;40.50;82.10;;;;;;5014832;28;20022;-87
2021/06/08 06:09:20;;;;;;;3.03;2.58;;;41.20;80.40;;;;;;5013857;28;20041;-85
2021/06/08 06:11:49;;;;;;;5.40;2.63;;;41.40;78.20;;;;;;5014291;28;20117;-88
2021/06/08 06:14:18;;;;;;;8.43;2.55;;;42.10;77.60;;;;;;5014544;28;20017;-89
2021/06/08 06:16:46;;;;;;;5.20;2.75;;;42.20;75.50;;;;;;5014532;28;20025;-87
2021/06/08 06:19:12;;;;;;;3.80;2.30;;;42.60;75.10;;;;;;5014406;28;20025;-88
2021/06/08 06:21:39;;;;;;;10.00;2.58;;;42.50;73.50;;;;;;5014767;28;20092;-88
2021/06/08 06:24:06;;;;;;;3.72;2.35;;;42.20;74.00;;;;;;5014149;28;20710;-86
2021/06/08 06:26:33;;;;;;;5.63;2.78;;;41.50;73.70;;;;;;5014179;28;20105;-86
2021/06/08 06:28:59;;;;;;;6.13;2.97;;;41.40;74.80;;;;;;5014133;28;20038;-88
2021/06/08 06:31:26;;;;;;;5.85;2.80;;;41.80;73.80;;;;;;5013751;28;20021;-84
2021/06/08 06:33:56;;;;;;;5.22;2.47;;;41.50;73.30;;;;;;5014038;28;20033;-88
2021/06/08 06:36:25;;;;;;;5.75;2.53;;;41.20;73.50;;;;;;5013199;28;20113;-87
2021/06/08 06:38:52;;;;;;;11.18;3.40;;;41.00;73.80;;;;;;5014087;28;20525;-81
2021/06/08 06:41:19;;;;;;;21.27;3.85;;;40.70;73.90;;;;;;5013782;28;20100;-88
2021/06/08 06:43:54;;;;;;;18.33;3.95;;;40.20;74.90;;;;;;5013720;28;20088;-86
2021/06/08 06:46:21;;;;;;;7.18;3.13;;;38.70;74.80;;;;;;5013686;28;20029;-87
2021/06/08 06:48:50;;;;;;;17.98;4.55;;;37.00;76.60;;;;;;5013312;28;20129;-88
2021/06/08 06:51:16;;;;;;;9.40;3.53;;;35.70;79.00;;;;;;5013534;28;20108;-88
2021/06/08 06:53:43;;;;;;;6.95;3.55;;;34.80;82.00;;;;;;5013585;28;20502;-81
2021/06/08 06:56:08;;;;;;;5.60;2.85;;;34.20;82.60;;;;;;4994695;28;20065;-87
2021/06/08 06:58:35;;;;;;;5.90;3.42;;;33.20;83.60;;;;;;4989530;28;20468;-88
2021/06/08 07:01:01;;;;;;;5.72;3.60;;;32.20;86.20;;;;;;4977121;28;20019;-87
2021/06/08 07:03:33;;;;;;;6.78;3.70;;;31.60;88.30;;;;;;4992414;28;20109;-88
2021/06/08 07:06:00;;;;;;;9.63;4.05;;;31.20;89.00;;;;;;4987048;28;20487;-88
2021/06/08 07:08:28;;;;;;;5.32;4.00;;;31.00;90.30;;;;;;4993755;28;20128;-84
2021/06/08 07:10:54;;;;;;;7.68;4.28;;;30.90;90.50;;;;;;4994744;28;20486;-88
2021/06/08 07:13:22;;;;;;;7.07;3.70;;;30.80;90.90;;;;;;4995525;28;20026;-88
2021/06/08 07:15:54;;;;;;;4.97;3.42;;;30.80;90.80;;;;;;4992521;28;20031;-85
2021/06/08 07:18:20;;;;;;;7.43;4.10;;;30.70;90.90;;;;;;5007398;28;20026;-87
2021/06/08 07:20:47;;;;;;;4.70;3.60;;;30.70;91.30;;;;;;5001665;28;20023;-87
2021/06/08 07:23:16;;;;;;;9.55;4.55;;;30.70;91.20;;;;;;4994972;28;20022;-88
2021/06/08 07:25:43;;;;;;;12.60;3.58;;;30.90;91.30;;;;;;4996495;28;20053;-87
2021/06/08 07:28:11;;;;;;;4.43;4.00;;;31.00;91.50;;;;;;5003781;28;20018;-85
2021/06/08 07:30:41;;;;;;;7.53;3.88;;;31.00;90.70;;;;;;4970624;28;20095;-86
2021/06/08 07:33:36;;;;;;;7.32;4.10;;;31.00;91.20;;;;;;4996315;28;20109;-87
2021/06/08 07:36:18;;;;;;;9.43;3.85;;;31.00;91.30;;;;;;4980620;28;20483;-87
2021/06/08 07:39:09;;;;;;;10.10;3.75;;;31.20;91.20;;;;;;4996674;28;20069;-87
2021/06/08 07:41:58;;;;;;;10.40;3.50;;;31.10;90.60;;;;;;4997360;28;20093;-92
2021/06/08 07:44:49;;;;;;;7.45;4.25;;;31.30;90.90;;;;;;4998486;28;20042;-88
2021/06/08 07:47:17;;;;;;;5.43;4.00;;;31.40;90.10;;;;;;4985285;28;20458;-86
2021/06/08 07:49:45;;;;;;;8.55;3.78;;;31.40;90.60;;;;;;4990773;28;20085;-83
2021/06/08 07:52:13;;;;;;;9.52;3.80;;;31.50;90.50;;;;;;4997837;28;20026;-85
2021/06/08 07:54:41;;;;;;;5.38;4.00;;;31.70;90.20;;;;;;4999241;28;20483;-86
2021/06/08 07:57:07;;;;;;;7.57;3.92;;;31.70;90.20;;;;;;5004488;28;20034;-82
2021/06/08 07:59:34;;;;;;;6.43;3.83;;;31.70;90.70;;;;;;5006912;28;20023;-86
2021/06/08 08:02:00;;;;;;;10.45;3.72;;;31.80;90.40;;;;;;5005442;28;20085;-85
2021/06/08 08:04:26;;;;;;;4.28;3.22;;;31.60;89.70;;;;;;4997551;28;20033;-83
2021/06/08 08:06:53;;;;;;;4.03;3.63;;;31.60;89.70;;;;;;5002426;28;20022;-88
2021/06/08 08:09:20;;;;;;;7.45;3.28;;;31.70;89.70;;;;;;4994789;28;20030;-87
2021/06/08 08:11:52;;;;;;;5.78;3.35;;;31.80;89.20;;;;;;4996909;28;20142;-91
2021/06/08 08:14:26;;;;;;;6.55;3.72;;;31.90;88.90;;;;;;4999078;28;20041;-90
2021/06/08 08:16:56;;;;;;;3.40;3.10;;;31.90;85.50;;;;;;4994603;28;20030;-88
2021/06/08 08:19:34;;;;;;;5.75;3.17;;;31.60;85.70;;;;;;5000789;28;20109;-90
2021/06/08 08:22:00;;;;;;;6.75;3.20;;;31.50;87.30;;;;;;4987673;28;20029;-90
2021/06/08 08:24:26;;;;;;;6.30;3.60;;;31.50;87.30;;;;;;4997011;28;20022;-87
2021/06/08 08:26:51;;;;;;;6.60;3.08;;;31.50;86.20;;;;;;4998368;28;20033;-92
2021/06/08 08:29:17;;;;;;;27.30;4.00;;;31.50;86.40;;;;;;4999965;28;20030;-90
2021/06/08 08:31:44;;;;;;;4.72;3.25;;;31.70;87.70;;;;;;4997166;28;20046;-89
2021/06/08 08:34:09;;;;;;;9.43;3.10;;;31.90;87.50;;;;;;4997728;28;20439;-92
2021/06/08 08:36:38;;;;;;;3.38;3.08;;;32.00;86.50;;;;;;4996802;28;20097;-89
2021/06/08 08:39:09;;;;;;;8.70;3.50;;;32.20;86.40;;;;;;4997856;28;20014;-89
2021/06/08 08:41:35;;;;;;;6.63;3.55;;;32.20;86.20;;;;;;5001142;28;20033;-87
2021/06/08 08:44:02;;;;;;;14.52;3.53;;;32.40;86.30;;;;;;4999955;28;20356;-92
2021/06/08 08:46:28;;;;;;;5.00;3.08;;;32.40;86.40;;;;;;4997617;28;20026;-90
2021/06/08 08:48:55;;;;;;;5.55;2.95;;;32.50;84.50;;;;;;4995177;28;20387;-91
2021/06/08 08:51:24;;;;;;;17.45;4.60;;;32.50;84.00;;;;;;5001188;28;20096;-89
2021/06/08 08:53:53;;;;;;;12.95;5.32;;;32.30;90.90;;;;;;4997934;28;20030;-91
2021/06/08 08:56:27;;;;;;;13.27;6.18;;;32.10;92.40;;;;;;4999322;28;20022;-86
2021/06/08 08:58:53;;;;;;;10.23;4.50;;;31.60;92.40;;;;;;5000178;28;20081;-92
2021/06/08 09:01:20;;;;;;;7.43;4.22;;;31.50;92.40;;;;;;4995083;28;20042;-89
2021/06/08 09:03:47;;;;;;;7.30;3.78;;;31.50;93.10;;;;;;4994376;28;20454;-91
2021/06/08 09:06:13;;;;;;;7.80;4.53;;;31.70;92.50;;;;;;5000461;28;20053;-92
2021/06/08 09:08:40;;;;;;;16.48;4.63;;;31.80;93.00;;;;;;4996169;28;20456;-91
2021/06/08 09:11:07;;;;;;;12.95;4.25;;;32.10;93.10;;;;;;4999919;28;20027;-91
2021/06/08 09:13:33;;;;;;;5.47;4.30;;;32.30;92.90;;;;;;4996531;28;20025;-87
2021/06/08 09:15:59;;;;;;;7.75;4.45;;;32.40;92.40;;;;;;4993385;28;20019;-92
2021/06/08 09:18:25;;;;;;;8.20;4.40;;;32.20;93.10;;;;;;5003065;28;20027;-89
2021/06/08 09:20:52;;;;;;;10.20;4.45;;;32.30;93.50;;;;;;4998674;28;20034;-91
2021/06/08 09:23:23;;;;;;;4.72;3.80;;;32.40;92.60;;;;;;4996366;28;20423;-91
2021/06/08 09:25:51;;;;;;;6.85;4.32;;;32.20;92.80;;;;;;5001315;28;20100;-91
2021/06/08 09:28:34;;;;;;;8.55;4.50;;;32.00;93.00;;;;;;5008289;28;20069;-90
2021/06/08 09:31:13;;;;;;;7.88;4.40;;;31.80;92.90;;;;;;4998186;28;20089;-88
2021/06/08 09:33:44;;;;;;;8.05;4.30;;;31.60;92.60;;;;;;4988398;28;20388;-93
2021/06/08 09:36:18;;;;;;;10.43;4.47;;;31.40;92.60;;;;;;5000572;28;20026;-80
2021/06/08 09:38:59;;;;;;;9.35;4.93;;;31.30;92.80;;;;;;4999394;28;20179;-92
2021/06/08 09:41:49;;;;;;;8.93;4.82;;;31.30;92.50;;;;;;4993726;28;20031;-91
2021/06/08 09:44:16;;;;;;;12.93;4.65;;;31.30;93.10;;;;;;4996341;28;20031;-81
2021/06/08 09:46:55;;;;;;;11.43;4.57;;;31.20;93.30;;;;;;4993365;28;20030;-84
2021/06/08 09:49:30;;;;;;;6.80;4.22;;;31.20;93.00;;;;;;4977716;28;20058;-81
2021/06/08 09:52:06;;;;;;;10.77;4.40;;;31.00;93.70;;;;;;4997172;28;20026;-86
2021/06/08 09:54:58;;;;;;;5.18;4.18;;;31.00;93.30;;;;;;4994575;28;20100;-83
2021/06/08 09:57:28;;;;;;;10.82;4.97;;;31.00;92.70;;;;;;4992386;28;20043;-83
2021/06/08 09:59:58;;;;;;;7.95;4.45;;;30.90;93.70;;;;;;5006727;28;20504;-84
2021/06/08 10:02:33;;;;;;;10.43;4.50;;;31.00;93.70;;;;;;4994644;28;20093;-84
2021/06/08 10:05:18;;;;;;;15.60;4.68;;;31.20;94.00;;;;;;4992688;28;20084;-82
2021/06/08 10:07:45;;;;;;;4.40;4.00;;;31.30;93.80;;;;;;4993616;28;20037;-85
2021/06/08 10:10:22;;;;;;;11.32;4.70;;;31.30;93.20;;;;;;4993678;28;20021;-86
2021/06/08 10:13:05;;;;;;;7.78;4.05;;;31.40;92.80;;;;;;5000556;28;20031;-84
2021/06/08 10:15:34;;;;;;;5.70;3.90;;;31.40;92.40;;;;;;4995498;28;20080;-82
2021/06/08 10:18:07;;;;;;;10.05;4.32;;;31.40;92.50;;;;;;4994132;28;20024;-83
2021/06/08 10:20:41;;;;;;;9.30;4.10;;;31.40;92.10;;;;;;4990490;28;20026;-83
2021/06/08 10:23:25;;;;;;;5.63;4.07;;;31.40;92.10;;;;;;4993633;28;20026;-84
2021/06/08 10:25:58;;;;;;;4.53;3.90;;;31.40;91.30;;;;;;4992582;28;20371;-84
2021/06/08 10:28:26;;;;;;;5.72;3.95;;;31.70;89.90;;;;;;4993385;28;20042;-84
2021/06/08 10:30:53;;;;;;;6.75;4.35;;;32.00;91.10;;;;;;4993304;28;20073;-82
2021/06/08 10:33:21;;;;;;;8.98;4.38;;;32.10;92.30;;;;;;4993865;28;20030;-83
2021/06/08 10:35:50;;;;;;;8.40;4.28;;;32.00;91.90;;;;;;4993307;28;20034;-83
2021/06/08 10:38:16;;;;;;;8.85;4.00;;;31.80;91.30;;;;;;4993267;28;20035;-84
2021/06/08 10:40:44;;;;;;;11.30;4.05;;;31.80;91.30;;;;;;4992491;28;20049;-83
2021/06/08 10:43:15;;;;;;;8.00;3.53;;;31.70;91.00;;;;;;4993288;28;20026;-84
2021/06/08 10:45:41;;;;;;;;;;;31.60;91.50;;;;;;4993586;28;20114;-82
2021/06/08 10:48:14;;;;;;;7.95;3.88;;;31.20;90.80;;;;;;4984064;28;19938;-83
2021/06/08 10:50:44;;;;;;;9.35;3.75;;;30.80;90.40;;;;;;4993223;28;20088;-84
2021/06/08 10:53:26;;;;;;;4.10;3.70;;;30.50;91.10;;;;;;4993296;28;20137;-82
2021/06/08 10:55:52;;;;;;;7.18;4.05;;;30.30;91.90;;;;;;4990696;28;20018;-82
2021/06/08 10:58:45;;;;;;;8.40;4.22;;;30.20;91.60;;;;;;4985625;28;20672;-83
2021/06/08 11:01:38;;;;;;;5.88;4.35;;;30.20;91.70;;;;;;4974071;28;20068;-82
2021/06/08 11:04:13;;;;;;;5.20;4.03;;;30.40;91.30;;;;;;4992388;28;20541;-84
2021/06/08 11:06:51;;;;;;;7.72;4.18;;;30.50;91.60;;;;;;4993649;28;20039;-84
2021/06/08 11:09:37;;;;;;;8.13;4.07;;;30.60;92.30;;;;;;4992078;28;20041;-85
2021/06/08 11:12:07;;;;;;;9.23;3.97;;;30.60;91.90;;;;;;4993013;28;20030;-84
2021/06/08 11:14:37;;;;;;;6.43;4.10;;;30.50;92.00;;;;;;4991058;28;20041;-85
2021/06/08 11:17:31;;;;;;;6.85;3.58;;;30.30;92.20;;;;;;4993404;28;20475;-84
2021/06/08 11:20:00;;;;;;;5.68;4.03;;;30.10;91.40;;;;;;4980443;28;20368;-84
2021/06/08 11:22:34;;;;;;;14.20;4.13;;;29.90;92.20;;;;;;4975273;28;20092;-85
2021/06/08 11:25:03;;;;;;;7.05;4.30;;;29.60;93.30;;;;;;4993237;28;20054;-82
2021/06/08 11:27:53;;;;;;;8.38;4.43;;;29.40;93.60;;;;;;4993073;28;20113;-83
2021/06/08 11:30:25;;;;;;;17.55;5.03;;;29.30;93.60;;;;;;4975666;28;20054;-84
2021/06/08 11:32:52;;;;;;;9.52;4.07;;;29.10;93.70;;;;;;4993093;28;20479;-84
2021/06/08 11:35:22;;;;;;;8.27;4.30;;;29.00;94.20;;;;;;4993307;28;20494;-83
2021/06/08 11:38:03;;;;;;;6.20;4.82;;;28.90;94.60;;;;;;4993290;28;20025;-81
2021/06/08 11:40:43;;;;;;;11.07;4.55;;;28.70;95.20;;;;;;4983318;28;20030;-84
2021/06/08 11:43:11;;;;;;;10.18;4.60;;;28.60;96.10;;;;;;4993044;28;20019;-83
2021/06/08 11:45:45;;;;;;;9.20;4.88;;;28.40;97.80;;;;;;4993337;28;20030;-84
2021/06/08 11:48:37;;;;;;;12.02;5.75;;;28.30;98.50;;;;;;4996039;28;20486;-82
2021/06/08 11:51:14;;;;;;;17.80;5.35;;;28.20;98.50;;;;;;4990824;28;20537;-79
2021/06/08 11:53:58;;;;;;;15.02;5.32;;;28.10;99.30;;;;;;5012525;28;20033;-85
2021/06/08 11:56:46;;;;;;;16.13;5.10;;;28.10;98.60;;;;;;5012799;28;20072;-84
2021/06/08 11:59:12;;;;;;;19.60;5.63;;;28.20;97.30;;;;;;5012684;28;20023;-83
2021/06/08 12:01:47;;;;;;;30.70;5.30;;;28.20;97.00;;;;;;5012587;28;20041;-86
2021/06/08 12:04:14;;;;;;;15.63;4.90;;;28.40;96.90;;;;;;5012563;28;20022;-84
2021/06/08 12:06:55;;;;;;;24.20;4.95;;;28.60;96.70;;;;;;5012750;28;20423;-83
2021/06/08 12:09:21;;;;;;;29.13;6.28;;;28.80;96.90;;;;;;5012604;28;20390;-83
2021/06/08 12:11:48;;;;;;;32.20;6.03;;;29.00;97.30;;;;;;5012740;28;20022;-84
2021/06/08 12:14:14;;;;;;;13.40;5.50;;;29.10;96.90;;;;;;5012798;28;20030;-84
2021/06/08 12:16:40;;;;;;;30.90;5.82;;;29.10;97.10;;;;;;5012592;28;20029;-83
2021/06/08 12:19:09;;;;;;;16.40;6.43;;;29.20;97.70;;;;;;5012697;28;20057;-84
2021/06/08 12:21:35;;;;;;;20.92;6.07;;;29.20;98.50;;;;;;5012058;28;20021;-82
2021/06/08 12:24:01;;;;;;;18.63;6.22;;;29.20;98.80;;;;;;5012525;28;20455;-82
2021/06/08 12:26:27;;;;;;;22.33;5.80;;;29.30;99.10;;;;;;5006608;28;20057;-84
2021/06/08 12:29:12;;;;;;;23.95;6.10;;;29.50;99.50;;;;;;4989330;28;20117;-82
2021/06/08 12:31:39;;;;;;;15.40;6.00;;;29.60;99.20;;;;;;4993002;28;20101;-84
2021/06/08 12:34:16;;;;;;;12.40;5.78;;;29.60;98.00;;;;;;4997712;28;20486;-83
2021/06/08 12:36:43;;;;;;;11.88;5.45;;;29.70;99.80;;;;;;4997034;28;20082;-84
2021/06/08 12:39:14;;;;;;;14.27;5.22;;;29.60;99.80;;;;;;5000439;28;20033;-84
2021/06/08 12:41:41;;;;;;;24.88;5.47;;;29.50;99.70;;;;;;4980419;28;20062;-81
2021/06/08 12:44:07;;;;;;;28.73;6.72;;;29.40;98.90;;;;;;4998164;28;20494;-80
2021/06/08 12:46:36;;;;;;;18.33;5.38;;;29.40;99.50;;;;;;4984111;28;20121;-84
2021/06/08 12:49:06;;;;;;;15.82;5.75;;;29.50;98.40;;;;;;5003300;28;20038;-82
2021/06/08 12:51:38;;;;;;;25.20;5.55;;;29.40;98.10;;;;;;5015371;28;20105;-81
2021/06/08 12:54:05;;;;;;;24.23;5.15;;;29.10;97.60;;;;;;5015690;28;20033;-81
2021/06/08 12:56:35;;;;;;;13.93;4.93;;;28.80;98.60;;;;;;5014037;28;20069;-83
2021/06/08 12:59:02;;;;;;;15.60;5.15;;;28.60;98.40;;;;;;5012596;28;20062;-80